createdAt,value
2023-01-06T00:01:24.330Z,87.06
2023-01-06T00:03:54.128Z,86.79
2023-01-06T00:06:27.628Z,87.08
2023-01-06T00:08:56.451Z,87.01
2023-01-06T00:11:25.841Z,87.09
2023-01-06T00:13:55.715Z,86.81
2023-01-06T00:16:24.995Z,86.87
2023-01-06T00:18:56.494Z,87.05
2023-01-06T00:21:26.749Z,86.96
2023-01-06T00:23:55.483Z,87.21
2023-01-06T00:26:24.217Z,87.50
2023-01-06T00:28:54.640Z,87.17
2023-01-06T00:31:23.678Z,86.95
2023-01-06T00:33:53.147Z,87.11
2023-01-06T00:36:22.433Z,87.08
2023-01-06T00:38:53.026Z,87.19
2023-01-06T00:41:39.666Z,87.25
2023-01-06T00:44:08.773Z,87.08
2023-01-06T00:46:37.305Z,87.06
2023-01-06T00:49:07.827Z,86.80
2023-01-06T00:51:40.391Z,86.70
2023-01-06T00:54:13.223Z,86.46
2023-01-06T00:56:43.950Z,86.64
2023-01-06T00:59:15.573Z,86.69
2023-01-06T01:01:45.614Z,86.59
2023-01-06T01:04:15.937Z,86.61
2023-01-06T01:06:46.132Z,86.65
2023-01-06T01:09:18.437Z,86.69
2023-01-06T01:12:05.065Z,86.46
2023-01-06T01:14:34.735Z,86.34
2023-01-06T01:17:03.910Z,86.49
2023-01-06T01:19:32.764Z,86.71
2023-01-06T01:22:02.811Z,86.62
2023-01-06T01:24:32.721Z,86.82
2023-01-06T01:27:01.542Z,86.59
2023-01-06T01:29:30.159Z,87.33
2023-01-06T01:31:59.330Z,86.92
2023-01-06T01:34:28.885Z,87.26
2023-01-06T01:36:57.761Z,87.09
2023-01-06T01:39:28.712Z,87.30
2023-01-06T01:41:59.952Z,87.28
2023-01-06T01:45:03.866Z,87.45
2023-01-06T01:47:44.550Z,87.48
2023-01-06T01:50:26.012Z,87.42
2023-01-06T01:52:57.709Z,87.24
2023-01-06T01:55:28.573Z,87.28
2023-01-06T01:58:02.913Z,87.31
2023-01-06T02:00:31.280Z,87.66
2023-01-06T02:03:00.791Z,87.76
2023-01-06T02:05:30.375Z,87.82
2023-01-06T02:08:03.588Z,87.68
2023-01-06T02:10:32.467Z,87.73
2023-01-06T02:13:02.745Z,87.44
2023-01-06T02:15:33.753Z,87.57
2023-01-06T02:18:44.980Z,87.67
2023-01-06T02:21:31.426Z,87.61
2023-01-06T02:24:47.180Z,87.73
2023-01-06T02:27:38.293Z,87.76
2023-01-06T02:31:27.043Z,87.82
2023-01-06T02:34:06.648Z,88.03
2023-01-06T02:36:41.980Z,88.09
2023-01-06T02:39:26.505Z,88.19
2023-01-06T02:42:18.878Z,88.18
2023-01-06T02:45:00.982Z,88.07
2023-01-06T02:47:34.957Z,88.25
2023-01-06T02:50:17.869Z,88.21
2023-01-06T02:52:53.387Z,88.14
2023-01-06T02:55:28.119Z,88.36
2023-01-06T02:58:05.149Z,88.47
2023-01-06T03:00:37.193Z,88.30
2023-01-06T03:03:11.888Z,88.19
2023-01-06T03:05:44.792Z,88.38
2023-01-06T03:08:17.407Z,88.26
2023-01-06T03:10:48.579Z,88.48
2023-01-06T03:13:23.937Z,88.44
2023-01-06T03:15:56.460Z,88.20
2023-01-06T03:18:25.049Z,88.41
2023-01-06T03:20:57.742Z,88.39
2023-01-06T03:23:26.525Z,88.94
2023-01-06T03:25:54.999Z,88.59
2023-01-06T03:28:26.424Z,88.75
2023-01-06T03:31:07.277Z,88.46
2023-01-06T03:33:42.418Z,88.29
2023-01-06T03:36:24.858Z,88.72
2023-01-06T03:39:03.937Z,88.26
2023-01-06T03:41:56.548Z,88.41
2023-01-06T03:44:35.976Z,88.21
2023-01-06T03:47:13.648Z,88.37
2023-01-06T03:49:51.608Z,88.62
2023-01-06T03:52:26.083Z,88.26
2023-01-06T03:54:58.938Z,88.29
2023-01-06T03:57:32.790Z,88.17
2023-01-06T04:00:06.748Z,88.21
2023-01-06T04:02:42.885Z,88.55
2023-01-06T04:05:18.883Z,88.38
2023-01-06T04:07:50.280Z,88.28
2023-01-06T04:10:23.055Z,88.42
2023-01-06T04:12:54.351Z,88.62
2023-01-06T04:15:29.861Z,88.58
2023-01-06T04:18:00.171Z,88.67
2023-01-06T04:20:32.543Z,89.07
2023-01-06T04:23:22.463Z,88.98
2023-01-06T04:25:50.873Z,88.93
2023-01-06T04:28:29.772Z,88.75
2023-01-06T04:30:59.620Z,89.24
2023-01-06T04:33:29.182Z,88.98
2023-01-06T04:36:01.429Z,88.91
2023-01-06T04:38:31.670Z,89.06
2023-01-06T04:41:00.234Z,89.32
2023-01-06T04:43:28.582Z,89.27
2023-01-06T04:45:59.846Z,89.34
2023-01-06T04:48:28.244Z,89.26
2023-01-06T04:51:02.312Z,88.49
2023-01-06T04:53:34.313Z,88.19
2023-01-06T04:56:04.640Z,88.25
2023-01-06T04:58:33.662Z,88.89
2023-01-06T05:01:02.819Z,89.04
2023-01-06T05:03:32.033Z,88.42
2023-01-06T05:06:03.284Z,88.43
2023-01-06T05:08:33.468Z,88.82
2023-01-06T05:11:03.057Z,88.61
2023-01-06T05:13:33.188Z,88.20
2023-01-06T05:16:02.033Z,88.35
2023-01-06T05:18:30.448Z,88.81
2023-01-06T05:20:58.764Z,89.28
2023-01-06T05:23:26.982Z,89.29
2023-01-06T05:25:57.012Z,89.30
2023-01-06T05:28:25.463Z,89.12
2023-01-06T05:30:54.005Z,88.92
2023-01-06T05:33:22.464Z,89.35
2023-01-06T05:35:50.822Z,89.82
2023-01-06T05:38:19.215Z,89.43
2023-01-06T05:40:52.458Z,89.54
2023-01-06T05:43:22.228Z,89.49
2023-01-06T05:45:50.581Z,89.69
2023-01-06T05:48:18.981Z,89.58
2023-01-06T05:50:49.813Z,89.76
2023-01-06T05:53:18.185Z,89.90
2023-01-06T05:55:46.606Z,89.70
2023-01-06T05:58:14.881Z,89.24
2023-01-06T06:00:44.609Z,89.33
2023-01-06T06:03:12.987Z,89.48
2023-01-06T06:05:41.242Z,89.75
2023-01-06T06:08:09.465Z,89.81
2023-01-06T06:10:37.833Z,89.78
2023-01-06T06:13:06.091Z,89.51
2023-01-06T06:15:34.665Z,90.23
2023-01-06T06:18:04.685Z,89.86
2023-01-06T06:20:33.101Z,89.78
2023-01-06T06:23:01.384Z,89.72
2023-01-06T06:25:30.020Z,89.88
2023-01-06T06:27:59.810Z,90.03
2023-01-06T06:30:28.579Z,90.43
2023-01-06T06:32:56.876Z,89.99
2023-01-06T06:35:26.562Z,90.22
2023-01-06T06:37:55.656Z,89.99
2023-01-06T06:40:23.877Z,90.01
2023-01-06T06:42:53.155Z,89.92
2023-01-06T06:45:21.510Z,90.10
2023-01-06T06:47:49.903Z,90.14
2023-01-06T06:50:18.438Z,90.18
2023-01-06T06:52:48.131Z,90.17
2023-01-06T06:55:16.446Z,90.11
2023-01-06T06:57:44.779Z,90.06
2023-01-06T07:00:14.573Z,90.13
2023-01-06T07:02:42.948Z,90.29
2023-01-06T07:05:11.476Z,90.35
2023-01-06T07:07:39.870Z,90.04
2023-01-06T07:10:14.178Z,90.34
2023-01-06T07:12:42.690Z,90.18
2023-01-06T07:15:11.998Z,90.59
2023-01-06T07:17:41.728Z,90.02
2023-01-06T07:20:11.532Z,89.76
2023-01-06T07:22:40.356Z,89.64
2023-01-06T07:25:11.580Z,89.82
2023-01-06T07:27:39.974Z,89.73
2023-01-06T07:30:10.503Z,89.74
2023-01-06T07:32:38.947Z,90.10
2023-01-06T07:35:08.507Z,90.04
2023-01-06T07:37:36.795Z,90.41
2023-01-06T07:40:06.333Z,91.05
2023-01-06T07:42:36.586Z,91.42
2023-01-06T07:45:05.551Z,92.14
2023-01-06T07:47:34.024Z,93.45
2023-01-06T07:50:02.449Z,93.93
2023-01-06T07:52:31.972Z,95.14
2023-01-06T07:55:04.522Z,95.93
2023-01-06T07:57:32.999Z,96.20
2023-01-06T08:00:02.993Z,97.12
2023-01-06T08:02:40.568Z,98.48
2023-01-06T08:05:09.589Z,99.70
2023-01-06T08:07:38.033Z,99.76
2023-01-06T08:10:08.021Z,99.32
2023-01-06T08:12:37.166Z,99.97
2023-01-06T08:15:09.131Z,100.00
2023-01-06T08:17:37.567Z,100.00
2023-01-06T08:20:07.316Z,99.97
2023-01-06T08:22:35.754Z,99.22
2023-01-06T08:25:04.077Z,98.99
2023-01-06T08:30:50.672Z,99.51
2023-01-06T08:33:19.177Z,99.23
2023-01-06T08:35:48.450Z,98.43
2023-01-06T08:38:17.297Z,97.44
2023-01-06T08:40:45.653Z,97.01
2023-01-06T08:43:13.979Z,97.77
2023-01-06T08:45:42.256Z,96.94
2023-01-06T08:48:11.836Z,96.20
2023-01-06T08:50:40.744Z,96.11
2023-01-06T08:53:09.115Z,95.71
2023-01-06T08:55:39.670Z,95.07
2023-01-06T08:58:08.626Z,94.22
2023-01-06T09:00:38.144Z,94.69
2023-01-06T09:03:06.990Z,95.04
2023-01-06T09:05:36.570Z,94.92
2023-01-06T09:08:05.351Z,94.41
2023-01-06T09:10:33.695Z,94.01
2023-01-06T09:13:01.978Z,93.88
2023-01-06T09:15:30.763Z,94.29
2023-01-06T09:17:59.043Z,93.52
2023-01-06T09:20:27.459Z,92.75
2023-01-06T09:22:57.336Z,92.74
2023-01-06T09:25:25.674Z,92.25
2023-01-06T09:27:54.130Z,92.02
2023-01-06T09:30:25.190Z,91.98
2023-01-06T09:32:53.707Z,92.19
2023-01-06T09:35:21.948Z,91.69
2023-01-06T09:37:51.446Z,92.09
2023-01-06T09:40:27.153Z,92.33
2023-01-06T09:43:09.506Z,92.52
2023-01-06T09:45:43.340Z,93.09
2023-01-06T09:48:17.751Z,91.69
2023-01-06T09:50:49.901Z,91.48
2023-01-06T09:53:23.185Z,91.70
2023-01-06T09:55:58.113Z,90.79
2023-01-06T09:58:33.764Z,91.59
2023-01-06T10:01:08.717Z,91.08
2023-01-06T10:03:36.966Z,90.02
2023-01-06T10:06:26.690Z,88.56
2023-01-06T10:09:07.696Z,88.84
2023-01-06T10:11:52.252Z,88.13
2023-01-06T10:14:38.368Z,88.26
2023-01-06T10:17:26.512Z,87.96
2023-01-06T10:20:07.603Z,87.47
2023-01-06T10:22:46.324Z,86.98
2023-01-06T10:25:21.763Z,87.56
2023-01-06T10:27:57.886Z,87.89
2023-01-06T10:30:33.836Z,87.54
2023-01-06T10:33:06.723Z,86.71
2023-01-06T10:35:35.156Z,87.74
2023-01-06T10:41:35.670Z,87.87
2023-01-06T10:44:05.881Z,86.80
2023-01-06T10:46:37.102Z,86.82
2023-01-06T10:49:08.716Z,85.42
2023-01-06T10:51:40.176Z,86.10
2023-01-06T10:54:12.198Z,85.93
2023-01-06T10:56:46.850Z,85.81
2023-01-06T10:59:16.725Z,85.70
2023-01-06T11:01:53.479Z,85.81
2023-01-06T11:04:22.299Z,85.56
2023-01-06T11:06:53.678Z,84.96
2023-01-06T11:09:30.997Z,85.03
2023-01-06T11:12:02.962Z,84.82
2023-01-06T11:14:34.815Z,83.19
2023-01-06T11:17:05.888Z,81.26
2023-01-06T11:19:38.735Z,79.98
2023-01-06T11:22:35.308Z,79.15
2023-01-06T11:25:07.853Z,77.84
2023-01-06T11:27:39.050Z,78.14
2023-01-06T11:30:23.593Z,78.77
2023-01-06T11:32:52.021Z,78.53
2023-01-06T11:35:23.500Z,79.02
2023-01-06T11:37:59.726Z,78.00
2023-01-06T11:40:34.467Z,78.37
2023-01-06T11:43:07.973Z,79.42
2023-01-06T11:45:41.336Z,78.95
2023-01-06T11:48:17.555Z,78.75
2023-01-06T11:50:54.938Z,78.95
2023-01-06T11:53:24.564Z,79.02
2023-01-06T11:56:02.646Z,78.32
2023-01-06T11:58:45.258Z,78.31
2023-01-06T12:01:22.727Z,78.62
2023-01-06T12:03:55.964Z,78.24
2023-01-06T12:06:32.693Z,78.61
2023-01-06T12:09:06.608Z,79.18
2023-01-06T12:11:46.305Z,78.67
2023-01-06T12:14:27.941Z,78.16
2023-01-06T12:17:09.921Z,78.62
2023-01-06T12:19:42.643Z,79.23
2023-01-06T12:22:20.645Z,78.93
2023-01-06T12:24:49.963Z,78.81
2023-01-06T12:27:25.396Z,79.19
2023-01-06T12:29:54.853Z,78.80
2023-01-06T12:32:29.142Z,79.00
2023-01-06T12:35:04.296Z,79.00
2023-01-06T12:37:38.151Z,78.57
2023-01-06T12:40:16.787Z,78.89
2023-01-06T12:42:54.407Z,79.18
2023-01-06T12:45:33.342Z,78.46
2023-01-06T12:48:17.743Z,78.37
2023-01-06T12:50:52.214Z,78.33
2023-01-06T12:53:26.855Z,78.08
2023-01-06T12:56:12.622Z,78.22
2023-01-06T12:58:49.555Z,78.90
2023-01-06T13:01:22.505Z,78.90
2023-01-06T13:04:33.409Z,78.62
2023-01-06T13:07:12.992Z,78.38
2023-01-06T13:09:57.363Z,78.49
2023-01-06T13:12:48.609Z,78.77
2023-01-06T13:15:23.887Z,77.75
2023-01-06T13:18:03.892Z,77.56
2023-01-06T13:20:39.404Z,77.32
2023-01-06T13:23:38.492Z,77.18
2023-01-06T13:26:39.155Z,77.03
2023-01-06T13:29:23.422Z,77.43
2023-01-06T13:32:19.341Z,77.35
2023-01-06T13:35:53.269Z,77.06
2023-01-06T13:38:45.471Z,77.44
2023-01-06T13:41:17.970Z,76.36
2023-01-06T13:43:50.429Z,76.69
2023-01-06T13:46:22.100Z,77.07
2023-01-06T13:48:55.016Z,77.15
2023-01-06T13:51:28.410Z,76.67
2023-01-06T13:54:00.513Z,76.15
2023-01-06T13:56:32.342Z,75.76
2023-01-06T13:59:25.232Z,73.51
2023-01-06T14:01:54.893Z,72.92
2023-01-06T14:04:50.040Z,72.58
2023-01-06T14:07:36.751Z,73.21
2023-01-06T14:10:18.004Z,73.79
2023-01-06T14:12:50.378Z,74.25
2023-01-06T14:15:24.880Z,73.81
2023-01-06T14:17:53.435Z,73.88
2023-01-06T14:20:31.235Z,73.87
2023-01-06T14:23:02.000Z,74.61
2023-01-06T14:25:33.641Z,74.77
2023-01-06T14:28:32.600Z,75.32
2023-01-06T14:31:39.527Z,74.97
2023-01-06T14:34:12.315Z,74.63
2023-01-06T14:36:41.393Z,74.76
2023-01-06T14:39:20.509Z,74.93
2023-01-06T14:41:58.735Z,75.18
2023-01-06T14:44:36.843Z,75.62
2023-01-06T14:47:12.439Z,75.79
2023-01-06T14:49:50.302Z,75.96
2023-01-06T14:52:21.993Z,76.35
2023-01-06T14:54:53.302Z,76.67
2023-01-06T14:57:34.851Z,76.93
2023-01-06T15:00:09.643Z,77.10
2023-01-06T15:02:44.255Z,77.37
2023-01-06T15:05:21.381Z,77.15
2023-01-06T15:08:02.176Z,77.11
2023-01-06T15:10:35.174Z,76.67
2023-01-06T15:13:05.771Z,76.59
2023-01-06T15:15:37.490Z,77.17
2023-01-06T15:18:08.796Z,77.07
2023-01-06T15:20:43.289Z,76.14
2023-01-06T15:23:17.507Z,76.51
2023-01-06T15:25:50.067Z,76.65
2023-01-06T15:28:31.391Z,76.55
2023-01-06T15:31:01.397Z,76.50
2023-01-06T15:33:38.639Z,76.05
2023-01-06T15:36:09.070Z,75.77
2023-01-06T15:38:40.264Z,75.88
2023-01-06T15:41:29.267Z,76.53
2023-01-06T15:43:59.460Z,75.69
2023-01-06T15:46:38.181Z,75.82
2023-01-06T15:49:07.424Z,75.72
2023-01-06T15:51:35.980Z,75.83
2023-01-06T15:54:04.530Z,75.75
2023-01-06T15:56:33.743Z,76.29
2023-01-06T15:59:03.821Z,75.89
2023-01-06T16:01:39.296Z,75.89
2023-01-06T16:04:07.983Z,75.82
2023-01-06T16:06:38.582Z,76.28
2023-01-06T16:09:30.829Z,75.75
2023-01-06T16:12:14.714Z,75.81
2023-01-06T16:14:58.007Z,76.19
2023-01-06T16:17:31.660Z,76.42
2023-01-06T16:20:04.911Z,76.87
2023-01-06T16:22:39.129Z,76.92
2023-01-06T16:25:23.599Z,76.52
2023-01-06T16:27:54.328Z,76.89
2023-01-06T16:30:27.176Z,76.82
2023-01-06T16:32:56.433Z,77.00
2023-01-06T16:35:27.043Z,77.22
2023-01-06T16:37:58.879Z,77.09
2023-01-06T16:40:30.038Z,77.08
2023-01-06T16:43:00.397Z,77.05
2023-01-06T16:45:37.009Z,76.52
2023-01-06T16:48:06.050Z,76.09
2023-01-06T16:50:40.371Z,76.40
2023-01-06T16:53:16.801Z,76.63
2023-01-06T16:55:45.829Z,76.28
2023-01-06T16:58:17.970Z,75.85
2023-01-06T17:00:52.520Z,76.04
2023-01-06T17:03:23.806Z,76.35
2023-01-06T17:05:52.828Z,76.45
2023-01-06T17:08:30.199Z,76.71
2023-01-06T17:11:01.361Z,76.66
2023-01-06T17:13:36.604Z,76.72
2023-01-06T17:16:16.906Z,76.86
2023-01-06T17:18:52.138Z,76.73
2023-01-06T17:21:24.549Z,76.86
2023-01-06T17:23:58.853Z,77.01
2023-01-06T17:26:28.611Z,76.35
2023-01-06T17:28:59.530Z,76.47
2023-01-06T17:31:34.041Z,76.58
2023-01-06T17:34:12.176Z,76.21
2023-01-06T17:36:42.704Z,75.78
2023-01-06T17:39:20.517Z,75.34
2023-01-06T17:41:49.024Z,75.41
2023-01-06T17:44:20.057Z,75.54
2023-01-06T17:46:49.738Z,75.22
2023-01-06T17:49:38.865Z,75.06
2023-01-06T17:52:18.339Z,75.15
2023-01-06T17:55:12.301Z,75.09
2023-01-06T17:57:45.570Z,75.48
2023-01-06T18:00:23.445Z,75.80
2023-01-06T18:03:00.565Z,75.85
2023-01-06T18:06:25.948Z,76.61
2023-01-06T18:09:13.097Z,76.57
2023-01-06T18:11:43.457Z,76.79
2023-01-06T18:14:30.469Z,77.14
2023-01-06T18:17:00.792Z,77.33
2023-01-06T18:19:35.471Z,77.09
2023-01-06T18:22:13.331Z,77.45
2023-01-06T18:24:43.012Z,77.38
2023-01-06T18:27:20.740Z,77.64
2023-01-06T18:29:49.813Z,77.85
2023-01-06T18:32:29.755Z,77.41
2023-01-06T18:35:02.008Z,77.92
2023-01-06T18:37:32.997Z,77.70
2023-01-06T18:40:04.398Z,77.56
2023-01-06T18:42:35.386Z,77.90
2023-01-06T18:45:22.504Z,77.66
2023-01-06T18:47:56.971Z,78.03
2023-01-06T18:50:31.696Z,78.52
2023-01-06T18:53:02.250Z,78.77
2023-01-06T18:55:38.594Z,78.65
2023-01-06T18:58:34.457Z,78.81
2023-01-06T19:01:13.189Z,78.74
2023-01-06T19:03:43.657Z,79.11
2023-01-06T19:06:43.379Z,79.18
2023-01-06T19:09:23.666Z,79.16
2023-01-06T19:12:18.975Z,78.76
2023-01-06T19:14:50.202Z,79.18
2023-01-06T19:17:24.465Z,79.55
2023-01-06T19:19:53.352Z,79.38
2023-01-06T19:22:27.207Z,79.73
2023-01-06T19:25:05.301Z,79.22
2023-01-06T19:27:50.105Z,79.30
2023-01-06T19:30:39.206Z,79.35
2023-01-06T19:33:35.098Z,79.43
2023-01-06T19:36:40.806Z,79.37
2023-01-06T19:39:30.276Z,79.29
2023-01-06T19:42:17.429Z,79.37
2023-01-06T19:44:48.665Z,79.71
2023-01-06T19:47:23.793Z,79.75
2023-01-06T19:49:55.859Z,79.70
2023-01-06T19:52:34.981Z,80.18
2023-01-06T19:55:24.055Z,80.16
2023-01-06T19:57:55.100Z,80.27
2023-01-06T20:00:30.636Z,80.31
2023-01-06T20:03:01.760Z,80.48
2023-01-06T20:05:32.248Z,80.84
2023-01-06T20:08:00.483Z,80.85
2023-01-06T20:10:30.304Z,81.20
2023-01-06T20:12:58.570Z,81.16
2023-01-06T20:15:27.073Z,81.61
2023-01-06T20:17:55.304Z,82.15
2023-01-06T20:20:23.844Z,82.38
2023-01-06T20:22:52.148Z,82.61
2023-01-06T20:25:20.604Z,83.18
2023-01-06T20:27:50.370Z,83.40
2023-01-06T20:30:18.871Z,83.23
2023-01-06T20:32:47.142Z,83.42
2023-01-06T20:35:16.711Z,83.58
2023-01-06T20:37:45.154Z,83.31
2023-01-06T20:40:13.760Z,83.05
2023-01-06T20:42:42.247Z,83.69
2023-01-06T20:45:13.762Z,83.74
2023-01-06T20:47:43.887Z,83.43
2023-01-06T20:50:14.323Z,83.34
2023-01-06T20:52:43.019Z,83.31
2023-01-06T20:55:11.496Z,83.12
2023-01-06T20:57:39.897Z,83.44
2023-01-06T21:00:12.010Z,83.74
2023-01-06T21:02:40.754Z,83.39
2023-01-06T21:05:10.136Z,83.11
2023-01-06T21:07:38.542Z,82.98
2023-01-06T21:10:07.905Z,83.06
2023-01-06T21:12:36.363Z,82.90
2023-01-06T21:15:05.194Z,82.91
2023-01-06T21:17:34.893Z,82.90
2023-01-06T21:20:03.455Z,82.90
2023-01-06T21:22:31.898Z,82.78
2023-01-06T21:25:00.179Z,83.03
2023-01-06T21:27:28.661Z,83.49
2023-01-06T21:29:56.885Z,82.95
2023-01-06T21:32:25.153Z,82.57
2023-01-06T21:34:54.732Z,82.47
2023-01-06T21:37:23.176Z,81.69
2023-01-06T21:39:51.523Z,81.54
2023-01-06T21:42:37.346Z,82.07
2023-01-06T21:45:07.889Z,82.14
2023-01-06T21:47:36.132Z,82.03
2023-01-06T21:50:06.688Z,81.13
2023-01-06T21:52:34.950Z,80.99
2023-01-06T21:55:03.508Z,80.69
2023-01-06T21:57:31.827Z,80.19
2023-01-06T22:00:00.219Z,80.28
2023-01-06T22:02:28.812Z,80.08
2023-01-06T22:04:57.279Z,79.72
2023-01-06T22:07:27.572Z,79.62
2023-01-06T22:09:56.802Z,79.51
2023-01-06T22:12:25.791Z,79.07
2023-01-06T22:14:56.671Z,78.61
2023-01-06T22:17:25.101Z,78.63
2023-01-06T22:19:56.399Z,78.20
2023-01-06T22:22:27.078Z,77.68
2023-01-06T22:24:56.605Z,77.88
2023-01-06T22:27:25.198Z,77.18
2023-01-06T22:29:53.479Z,75.87
2023-01-06T22:32:21.701Z,76.32
2023-01-06T22:34:49.964Z,76.21
2023-01-06T22:37:18.347Z,75.42
2023-01-06T22:39:49.365Z,74.93
2023-01-06T22:42:17.905Z,75.16
2023-01-06T22:44:46.259Z,75.07
2023-01-06T22:47:14.563Z,75.04
2023-01-06T22:49:42.819Z,74.76
2023-01-06T22:52:11.149Z,74.84
2023-01-06T22:54:39.426Z,75.55
2023-01-06T22:57:09.562Z,75.40
2023-01-06T22:59:37.850Z,75.13
2023-01-06T23:02:06.345Z,75.16
2023-01-06T23:04:34.767Z,75.43
2023-01-06T23:07:03.398Z,75.19
2023-01-06T23:09:31.852Z,74.93
2023-01-06T23:12:00.254Z,75.17
2023-01-06T23:14:30.195Z,75.25
2023-01-06T23:16:58.527Z,74.83
2023-01-06T23:19:27.723Z,74.97
2023-01-06T23:21:56.199Z,74.73
2023-01-06T23:24:24.692Z,74.59
2023-01-06T23:26:53.141Z,74.51
2023-01-06T23:29:21.472Z,74.47
2023-01-06T23:31:51.118Z,74.66
2023-01-06T23:34:20.091Z,74.56
2023-01-06T23:36:49.647Z,74.74
2023-01-06T23:39:18.337Z,74.83
2023-01-06T23:41:46.777Z,74.72
2023-01-06T23:44:17.479Z,74.47
2023-01-06T23:46:46.735Z,74.97
2023-01-06T23:49:18.498Z,74.56
2023-01-06T23:51:47.071Z,74.75
2023-01-06T23:54:15.864Z,74.82
2023-01-06T23:56:44.166Z,74.84
2023-01-06T23:59:14.010Z,74.58
